sensor_id;sensor_type;location;lat;lon;timestamp;P1;durP1;ratioP1;P2;durP2;ratioP2
26946;SDS011;14501;52.282;10.560;2023-07-16T00:01:08;5.95;;;3.97;;
26946;SDS011;14501;52.282;10.560;2023-07-16T00:03:34;5.20;;;3.90;;
26946;SDS011;14501;52.282;10.560;2023-07-16T00:06:00;5.78;;;3.67;;
26946;SDS011;14501;52.282;10.560;2023-07-16T00:08:25;5.07;;;3.95;;
26946;SDS011;14501;52.282;10.560;2023-07-16T00:10:51;4.60;;;3.55;;
26946;SDS011;14501;52.282;10.560;2023-07-16T00:13:16;5.72;;;3.67;;
26946;SDS011;14501;52.282;10.560;2023-07-16T00:15:42;6.10;;;3.42;;
26946;SDS011;14501;52.282;10.560;2023-07-16T00:18:07;5.78;;;3.72;;
26946;SDS011;14501;52.282;10.560;2023-07-16T00:20:33;6.43;;;3.50;;
26946;SDS011;14501;52.282;10.560;2023-07-16T00:22:59;8.05;;;3.75;;
26946;SDS011;14501;52.282;10.560;2023-07-16T00:25:24;5.80;;;3.25;;
26946;SDS011;14501;52.282;10.560;2023-07-16T00:33:28;4.57;;;3.42;;
26946;SDS011;14501;52.282;10.560;2023-07-16T00:35:53;4.80;;;4.05;;
26946;SDS011;14501;52.282;10.560;2023-07-16T00:38:19;6.22;;;3.88;;
26946;SDS011;14501;52.282;10.560;2023-07-16T00:40:45;4.13;;;3.75;;
26946;SDS011;14501;52.282;10.560;2023-07-16T00:43:11;5.57;;;4.43;;
26946;SDS011;14501;52.282;10.560;2023-07-16T00:45:37;10.60;;;4.40;;
26946;SDS011;14501;52.282;10.560;2023-07-16T00:48:04;4.65;;;4.13;;
26946;SDS011;14501;52.282;10.560;2023-07-16T00:50:31;6.65;;;3.80;;
26946;SDS011;14501;52.282;10.560;2023-07-16T00:52:59;6.47;;;4.03;;
26946;SDS011;14501;52.282;10.560;2023-07-16T00:55:26;4.82;;;3.70;;
26946;SDS011;14501;52.282;10.560;2023-07-16T00:57:54;5.47;;;3.90;;
26946;SDS011;14501;52.282;10.560;2023-07-16T01:00:22;8.57;;;3.83;;
26946;SDS011;14501;52.282;10.560;2023-07-16T01:04:24;4.90;;;3.50;;
26946;SDS011;14501;52.282;10.560;2023-07-16T01:06:53;3.78;;;3.47;;
26946;SDS011;14501;52.282;10.560;2023-07-16T01:09:22;6.28;;;4.25;;
26946;SDS011;14501;52.282;10.560;2023-07-16T01:11:49;7.28;;;3.55;;
26946;SDS011;14501;52.282;10.560;2023-07-16T01:14:17;5.43;;;3.38;;
26946;SDS011;14501;52.282;10.560;2023-07-16T01:16:43;5.63;;;4.10;;
26946;SDS011;14501;52.282;10.560;2023-07-16T01:19:09;6.28;;;3.78;;
26946;SDS011;14501;52.282;10.560;2023-07-16T01:21:38;8.38;;;4.13;;
26946;SDS011;14501;52.282;10.560;2023-07-16T01:32:32;6.03;;;3.95;;
26946;SDS011;14501;52.282;10.560;2023-07-16T01:34:59;6.65;;;3.78;;
26946;SDS011;14501;52.282;10.560;2023-07-16T01:37:25;8.80;;;4.32;;
26946;SDS011;14501;52.282;10.560;2023-07-16T01:39:50;3.83;;;3.50;;
26946;SDS011;14501;52.282;10.560;2023-07-16T01:42:16;5.07;;;3.63;;
26946;SDS011;14501;52.282;10.560;2023-07-16T01:44:42;6.25;;;3.95;;
26946;SDS011;14501;52.282;10.560;2023-07-16T01:49:40;4.30;;;3.47;;
26946;SDS011;14501;52.282;10.560;2023-07-16T01:52:07;3.72;;;3.38;;
26946;SDS011;14501;52.282;10.560;2023-07-16T01:54:34;6.10;;;3.92;;
26946;SDS011;14501;52.282;10.560;2023-07-16T01:57:00;5.00;;;4.05;;
26946;SDS011;14501;52.282;10.560;2023-07-16T01:59:26;5.95;;;4.47;;
26946;SDS011;14501;52.282;10.560;2023-07-16T02:01:52;5.00;;;4.05;;
26946;SDS011;14501;52.282;10.560;2023-07-16T02:04:17;7.93;;;4.10;;
26946;SDS011;14501;52.282;10.560;2023-07-16T02:06:43;5.57;;;4.30;;
26946;SDS011;14501;52.282;10.560;2023-07-16T02:09:09;5.72;;;4.10;;
26946;SDS011;14501;52.282;10.560;2023-07-16T02:11:35;6.43;;;4.00;;
26946;SDS011;14501;52.282;10.560;2023-07-16T02:14:01;4.93;;;3.70;;
26946;SDS011;14501;52.282;10.560;2023-07-16T02:16:27;4.40;;;3.72;;
26946;SDS011;14501;52.282;10.560;2023-07-16T02:18:52;4.85;;;4.35;;
26946;SDS011;14501;52.282;10.560;2023-07-16T02:21:18;9.05;;;4.15;;
26946;SDS011;14501;52.282;10.560;2023-07-16T02:23:43;5.97;;;4.38;;
26946;SDS011;14501;52.282;10.560;2023-07-16T02:26:09;7.53;;;4.40;;
26946;SDS011;14501;52.282;10.560;2023-07-16T02:28:34;4.15;;;3.70;;
26946;SDS011;14501;52.282;10.560;2023-07-16T02:31:00;7.90;;;4.13;;
26946;SDS011;14501;52.282;10.560;2023-07-16T02:33:27;5.35;;;3.67;;
26946;SDS011;14501;52.282;10.560;2023-07-16T02:35:52;4.07;;;3.38;;
26946;SDS011;14501;52.282;10.560;2023-07-16T02:38:18;4.15;;;3.50;;
26946;SDS011;14501;52.282;10.560;2023-07-16T02:40:44;5.75;;;3.30;;
26946;SDS011;14501;52.282;10.560;2023-07-16T02:43:11;5.38;;;3.38;;
26946;SDS011;14501;52.282;10.560;2023-07-16T02:45:36;5.97;;;3.28;;
26946;SDS011;14501;52.282;10.560;2023-07-16T02:48:02;5.50;;;2.78;;
26946;SDS011;14501;52.282;10.560;2023-07-16T02:50:30;5.65;;;2.60;;
26946;SDS011;14501;52.282;10.560;2023-07-16T02:52:58;5.93;;;2.38;;
26946;SDS011;14501;52.282;10.560;2023-07-16T02:55:24;7.65;;;2.78;;
26946;SDS011;14501;52.282;10.560;2023-07-16T02:57:49;15.23;;;3.40;;
26946;SDS011;14501;52.282;10.560;2023-07-16T03:00:15;5.22;;;2.75;;
26946;SDS011;14501;52.282;10.560;2023-07-16T03:02:41;5.93;;;3.00;;
26946;SDS011;14501;52.282;10.560;2023-07-16T03:05:06;5.85;;;3.25;;
26946;SDS011;14501;52.282;10.560;2023-07-16T03:07:32;8.30;;;3.65;;
26946;SDS011;14501;52.282;10.560;2023-07-16T03:09:58;5.38;;;2.90;;
26946;SDS011;14501;52.282;10.560;2023-07-16T03:12:24;5.45;;;3.38;;
26946;SDS011;14501;52.282;10.560;2023-07-16T03:14:50;6.22;;;3.20;;
26946;SDS011;14501;52.282;10.560;2023-07-16T03:17:15;8.27;;;3.35;;
26946;SDS011;14501;52.282;10.560;2023-07-16T03:19:41;12.80;;;3.88;;
26946;SDS011;14501;52.282;10.560;2023-07-16T03:22:07;8.60;;;4.00;;
26946;SDS011;14501;52.282;10.560;2023-07-16T03:24:33;8.32;;;3.85;;
26946;SDS011;14501;52.282;10.560;2023-07-16T03:26:58;8.30;;;3.92;;
26946;SDS011;14501;52.282;10.560;2023-07-16T03:29:25;5.70;;;3.85;;
26946;SDS011;14501;52.282;10.560;2023-07-16T03:31:50;7.38;;;4.28;;
26946;SDS011;14501;52.282;10.560;2023-07-16T03:34:16;8.75;;;3.70;;
26946;SDS011;14501;52.282;10.560;2023-07-16T03:36:41;5.57;;;4.00;;
26946;SDS011;14501;52.282;10.560;2023-07-16T03:39:07;8.98;;;4.20;;
26946;SDS011;14501;52.282;10.560;2023-07-16T03:41:33;8.82;;;4.40;;
26946;SDS011;14501;52.282;10.560;2023-07-16T03:43:59;5.10;;;3.92;;
26946;SDS011;14501;52.282;10.560;2023-07-16T03:46:25;7.15;;;4.63;;
26946;SDS011;14501;52.282;10.560;2023-07-16T03:48:53;6.90;;;4.70;;
26946;SDS011;14501;52.282;10.560;2023-07-16T03:51:18;7.90;;;4.90;;
26946;SDS011;14501;52.282;10.560;2023-07-16T03:53:44;7.00;;;4.45;;
26946;SDS011;14501;52.282;10.560;2023-07-16T03:56:09;10.45;;;4.75;;
26946;SDS011;14501;52.282;10.560;2023-07-16T03:58:35;10.05;;;4.60;;
26946;SDS011;14501;52.282;10.560;2023-07-16T04:01:01;9.32;;;5.30;;
26946;SDS011;14501;52.282;10.560;2023-07-16T04:03:26;5.95;;;4.35;;
26946;SDS011;14501;52.282;10.560;2023-07-16T04:05:52;7.00;;;4.40;;
26946;SDS011;14501;52.282;10.560;2023-07-16T04:08:18;8.80;;;5.05;;
26946;SDS011;14501;52.282;10.560;2023-07-16T04:10:44;8.00;;;5.20;;
26946;SDS011;14501;52.282;10.560;2023-07-16T04:13:09;7.47;;;5.35;;
26946;SDS011;14501;52.282;10.560;2023-07-16T04:15:35;9.02;;;5.25;;
26946;SDS011;14501;52.282;10.560;2023-07-16T04:18:00;7.25;;;5.25;;
26946;SDS011;14501;52.282;10.560;2023-07-16T04:20:27;8.23;;;4.75;;
26946;SDS011;14501;52.282;10.560;2023-07-16T04:22:53;7.78;;;5.53;;
26946;SDS011;14501;52.282;10.560;2023-07-16T04:25:19;11.15;;;5.38;;
26946;SDS011;14501;52.282;10.560;2023-07-16T04:27:45;9.52;;;4.80;;
26946;SDS011;14501;52.282;10.560;2023-07-16T04:30:10;7.57;;;4.43;;
26946;SDS011;14501;52.282;10.560;2023-07-16T04:32:36;8.65;;;4.88;;
26946;SDS011;14501;52.282;10.560;2023-07-16T04:35:02;5.70;;;4.03;;
26946;SDS011;14501;52.282;10.560;2023-07-16T04:37:28;6.53;;;3.80;;
26946;SDS011;14501;52.282;10.560;2023-07-16T04:39:54;6.68;;;3.83;;
26946;SDS011;14501;52.282;10.560;2023-07-16T04:42:19;7.50;;;3.92;;
26946;SDS011;14501;52.282;10.560;2023-07-16T04:44:45;4.88;;;3.67;;
26946;SDS011;14501;52.282;10.560;2023-07-16T04:47:11;3.72;;;3.17;;
26946;SDS011;14501;52.282;10.560;2023-07-16T04:49:36;7.35;;;3.20;;
26946;SDS011;14501;52.282;10.560;2023-07-16T04:52:02;6.78;;;3.83;;
26946;SDS011;14501;52.282;10.560;2023-07-16T04:54:28;5.90;;;3.50;;
26946;SDS011;14501;52.282;10.560;2023-07-16T04:56:53;5.15;;;3.38;;
26946;SDS011;14501;52.282;10.560;2023-07-16T04:59:19;6.38;;;3.50;;
26946;SDS011;14501;52.282;10.560;2023-07-16T05:01:45;8.20;;;3.45;;
26946;SDS011;14501;52.282;10.560;2023-07-16T05:04:10;6.35;;;3.88;;
26946;SDS011;14501;52.282;10.560;2023-07-16T05:06:36;5.90;;;3.67;;
26946;SDS011;14501;52.282;10.560;2023-07-16T05:09:01;6.30;;;3.33;;
26946;SDS011;14501;52.282;10.560;2023-07-16T05:11:27;5.65;;;2.90;;
26946;SDS011;14501;52.282;10.560;2023-07-16T05:13:53;9.90;;;3.20;;
26946;SDS011;14501;52.282;10.560;2023-07-16T05:16:18;5.95;;;3.03;;
26946;SDS011;14501;52.282;10.560;2023-07-16T05:18:44;4.28;;;2.88;;
26946;SDS011;14501;52.282;10.560;2023-07-16T05:21:09;5.70;;;2.50;;
26946;SDS011;14501;52.282;10.560;2023-07-16T05:23:35;8.85;;;3.40;;
26946;SDS011;14501;52.282;10.560;2023-07-16T05:26:00;3.72;;;2.72;;
26946;SDS011;14501;52.282;10.560;2023-07-16T05:28:26;7.28;;;3.10;;
26946;SDS011;14501;52.282;10.560;2023-07-16T05:30:58;8.15;;;2.47;;
26946;SDS011;14501;52.282;10.560;2023-07-16T05:33:25;4.72;;;2.25;;
26946;SDS011;14501;52.282;10.560;2023-07-16T05:35:50;7.68;;;3.05;;
26946;SDS011;14501;52.282;10.560;2023-07-16T05:38:16;5.55;;;2.30;;
26946;SDS011;14501;52.282;10.560;2023-07-16T05:40:41;5.88;;;2.60;;
26946;SDS011;14501;52.282;10.560;2023-07-16T05:43:07;5.75;;;2.67;;
26946;SDS011;14501;52.282;10.560;2023-07-16T05:45:33;4.60;;;2.35;;
26946;SDS011;14501;52.282;10.560;2023-07-16T05:47:59;2.90;;;2.20;;
26946;SDS011;14501;52.282;10.560;2023-07-16T05:50:24;8.88;;;2.60;;
26946;SDS011;14501;52.282;10.560;2023-07-16T05:52:50;3.72;;;2.15;;
26946;SDS011;14501;52.282;10.560;2023-07-16T05:55:16;4.03;;;2.10;;
26946;SDS011;14501;52.282;10.560;2023-07-16T05:57:42;4.30;;;2.03;;
26946;SDS011;14501;52.282;10.560;2023-07-16T06:00:08;5.00;;;1.70;;
26946;SDS011;14501;52.282;10.560;2023-07-16T06:02:34;4.07;;;1.58;;
26946;SDS011;14501;52.282;10.560;2023-07-16T06:04:59;2.67;;;1.88;;
26946;SDS011;14501;52.282;10.560;2023-07-16T06:07:25;4.57;;;1.30;;
26946;SDS011;14501;52.282;10.560;2023-07-16T06:09:50;2.42;;;1.30;;
26946;SDS011;14501;52.282;10.560;2023-07-16T06:12:16;4.28;;;2.08;;
26946;SDS011;14501;52.282;10.560;2023-07-16T06:14:42;5.38;;;1.52;;
26946;SDS011;14501;52.282;10.560;2023-07-16T06:17:07;5.25;;;1.48;;
26946;SDS011;14501;52.282;10.560;2023-07-16T06:19:33;3.40;;;1.80;;
26946;SDS011;14501;52.282;10.560;2023-07-16T06:21:59;3.13;;;1.42;;
26946;SDS011;14501;52.282;10.560;2023-07-16T06:24:25;3.90;;;1.77;;
26946;SDS011;14501;52.282;10.560;2023-07-16T06:26:50;4.97;;;1.63;;
26946;SDS011;14501;52.282;10.560;2023-07-16T06:29:16;5.63;;;1.60;;
26946;SDS011;14501;52.282;10.560;2023-07-16T06:31:53;3.25;;;1.45;;
26946;SDS011;14501;52.282;10.560;2023-07-16T06:34:23;3.60;;;1.50;;
26946;SDS011;14501;52.282;10.560;2023-07-16T06:36:49;3.17;;;1.52;;
26946;SDS011;14501;52.282;10.560;2023-07-16T06:39:14;5.40;;;1.60;;
26946;SDS011;14501;52.282;10.560;2023-07-16T06:41:40;2.35;;;1.25;;
26946;SDS011;14501;52.282;10.560;2023-07-16T06:44:05;3.30;;;1.80;;
26946;SDS011;14501;52.282;10.560;2023-07-16T06:46:31;2.92;;;1.77;;
26946;SDS011;14501;52.282;10.560;2023-07-16T06:48:57;4.30;;;1.70;;
26946;SDS011;14501;52.282;10.560;2023-07-16T06:51:22;2.75;;;1.50;;
26946;SDS011;14501;52.282;10.560;2023-07-16T06:53:48;4.47;;;1.80;;
26946;SDS011;14501;52.282;10.560;2023-07-16T06:56:14;3.90;;;1.95;;
26946;SDS011;14501;52.282;10.560;2023-07-16T06:58:39;5.97;;;1.50;;
26946;SDS011;14501;52.282;10.560;2023-07-16T07:01:05;2.00;;;1.35;;
26946;SDS011;14501;52.282;10.560;2023-07-16T07:03:31;4.32;;;1.48;;
26946;SDS011;14501;52.282;10.560;2023-07-16T07:05:58;2.70;;;1.83;;
26946;SDS011;14501;52.282;10.560;2023-07-16T07:08:27;2.33;;;1.40;;
26946;SDS011;14501;52.282;10.560;2023-07-16T07:10:53;2.85;;;1.70;;
26946;SDS011;14501;52.282;10.560;2023-07-16T07:13:18;4.22;;;1.70;;
26946;SDS011;14501;52.282;10.560;2023-07-16T07:15:44;1.80;;;1.40;;
26946;SDS011;14501;52.282;10.560;2023-07-16T07:18:09;2.30;;;1.63;;
26946;SDS011;14501;52.282;10.560;2023-07-16T07:20:35;2.50;;;1.67;;
26946;SDS011;14501;52.282;10.560;2023-07-16T07:23:01;2.72;;;1.55;;
26946;SDS011;14501;52.282;10.560;2023-07-16T07:25:28;3.00;;;1.80;;
26946;SDS011;14501;52.282;10.560;2023-07-16T07:27:54;5.10;;;1.58;;
26946;SDS011;14501;52.282;10.560;2023-07-16T07:30:20;2.92;;;1.63;;
26946;SDS011;14501;52.282;10.560;2023-07-16T07:32:45;4.40;;;1.90;;
26946;SDS011;14501;52.282;10.560;2023-07-16T07:35:11;4.80;;;1.58;;
26946;SDS011;14501;52.282;10.560;2023-07-16T07:37:37;4.57;;;1.67;;
26946;SDS011;14501;52.282;10.560;2023-07-16T07:40:02;4.00;;;1.73;;
26946;SDS011;14501;52.282;10.560;2023-07-16T07:42:29;3.80;;;1.60;;
26946;SDS011;14501;52.282;10.560;2023-07-16T07:44:54;2.05;;;1.48;;
26946;SDS011;14501;52.282;10.560;2023-07-16T07:47:20;4.68;;;1.40;;
26946;SDS011;14501;52.282;10.560;2023-07-16T07:49:46;3.60;;;1.48;;
26946;SDS011;14501;52.282;10.560;2023-07-16T07:52:11;3.95;;;1.55;;
26946;SDS011;14501;52.282;10.560;2023-07-16T07:54:37;5.13;;;1.38;;
26946;SDS011;14501;52.282;10.560;2023-07-16T07:57:03;3.55;;;1.55;;
26946;SDS011;14501;52.282;10.560;2023-07-16T07:59:30;2.30;;;1.40;;
26946;SDS011;14501;52.282;10.560;2023-07-16T08:01:56;3.38;;;1.40;;
26946;SDS011;14501;52.282;10.560;2023-07-16T08:04:23;2.47;;;1.20;;
26946;SDS011;14501;52.282;10.560;2023-07-16T08:06:49;1.80;;;1.20;;
26946;SDS011;14501;52.282;10.560;2023-07-16T08:09:15;5.50;;;1.60;;
26946;SDS011;14501;52.282;10.560;2023-07-16T08:11:41;4.60;;;1.38;;
26946;SDS011;14501;52.282;10.560;2023-07-16T08:14:06;2.92;;;1.38;;
26946;SDS011;14501;52.282;10.560;2023-07-16T08:16:32;2.90;;;1.60;;
26946;SDS011;14501;52.282;10.560;2023-07-16T08:18:58;4.43;;;1.38;;
26946;SDS011;14501;52.282;10.560;2023-07-16T08:21:23;2.00;;;0.95;;
26946;SDS011;14501;52.282;10.560;2023-07-16T08:23:49;4.03;;;1.70;;
26946;SDS011;14501;52.282;10.560;2023-07-16T08:26:15;2.47;;;1.20;;
26946;SDS011;14501;52.282;10.560;2023-07-16T08:28:41;5.75;;;2.40;;
26946;SDS011;14501;52.282;10.560;2023-07-16T08:31:06;5.20;;;1.88;;
26946;SDS011;14501;52.282;10.560;2023-07-16T08:33:32;3.72;;;1.80;;
26946;SDS011;14501;52.282;10.560;2023-07-16T08:35:57;4.38;;;1.60;;
26946;SDS011;14501;52.282;10.560;2023-07-16T08:38:23;4.97;;;1.67;;
26946;SDS011;14501;52.282;10.560;2023-07-16T08:40:49;4.03;;;1.75;;
26946;SDS011;14501;52.282;10.560;2023-07-16T08:43:15;4.22;;;1.40;;
26946;SDS011;14501;52.282;10.560;2023-07-16T08:45:41;4.30;;;1.50;;
26946;SDS011;14501;52.282;10.560;2023-07-16T08:48:10;8.23;;;1.85;;
26946;SDS011;14501;52.282;10.560;2023-07-16T08:50:36;5.72;;;1.73;;
26946;SDS011;14501;52.282;10.560;2023-07-16T08:53:05;9.10;;;2.10;;
26946;SDS011;14501;52.282;10.560;2023-07-16T08:55:31;4.88;;;2.00;;
26946;SDS011;14501;52.282;10.560;2023-07-16T08:57:58;5.35;;;1.70;;
26946;SDS011;14501;52.282;10.560;2023-07-16T09:00:24;7.18;;;1.52;;
26946;SDS011;14501;52.282;10.560;2023-07-16T09:02:51;3.90;;;1.55;;
26946;SDS011;14501;52.282;10.560;2023-07-16T09:05:21;3.92;;;1.42;;
26946;SDS011;14501;52.282;10.560;2023-07-16T09:07:47;6.03;;;1.85;;
26946;SDS011;14501;52.282;10.560;2023-07-16T09:10:13;5.00;;;1.58;;
26946;SDS011;14501;52.282;10.560;2023-07-16T09:12:42;2.03;;;1.30;;
26946;SDS011;14501;52.282;10.560;2023-07-16T09:15:09;3.58;;;1.90;;
26946;SDS011;14501;52.282;10.560;2023-07-16T09:17:35;4.85;;;1.60;;
26946;SDS011;14501;52.282;10.560;2023-07-16T09:20:03;3.53;;;1.50;;
26946;SDS011;14501;52.282;10.560;2023-07-16T09:22:30;2.67;;;1.60;;
26946;SDS011;14501;52.282;10.560;2023-07-16T09:24:56;3.97;;;1.60;;
26946;SDS011;14501;52.282;10.560;2023-07-16T09:27:27;4.00;;;1.73;;
26946;SDS011;14501;52.282;10.560;2023-07-16T09:29:54;7.15;;;2.10;;
26946;SDS011;14501;52.282;10.560;2023-07-16T09:32:19;5.22;;;1.92;;
26946;SDS011;14501;52.282;10.560;2023-07-16T09:34:48;7.65;;;2.05;;
26946;SDS011;14501;52.282;10.560;2023-07-16T09:37:14;8.65;;;1.60;;
26946;SDS011;14501;52.282;10.560;2023-07-16T09:39:43;4.85;;;2.10;;
26946;SDS011;14501;52.282;10.560;2023-07-16T09:42:11;4.13;;;1.70;;
26946;SDS011;14501;52.282;10.560;2023-07-16T09:44:37;6.25;;;2.10;;
26946;SDS011;14501;52.282;10.560;2023-07-16T09:47:05;3.83;;;1.98;;
26946;SDS011;14501;52.282;10.560;2023-07-16T09:49:30;2.15;;;1.50;;
26946;SDS011;14501;52.282;10.560;2023-07-16T09:51:56;4.28;;;1.70;;
26946;SDS011;14501;52.282;10.560;2023-07-16T09:54:24;2.67;;;1.52;;
26946;SDS011;14501;52.282;10.560;2023-07-16T09:56:53;6.72;;;2.05;;
26946;SDS011;14501;52.282;10.560;2023-07-16T09:59:26;5.53;;;1.70;;
26946;SDS011;14501;52.282;10.560;2023-07-16T10:01:54;2.35;;;1.60;;
26946;SDS011;14501;52.282;10.560;2023-07-16T10:04:21;3.55;;;1.60;;
26946;SDS011;14501;52.282;10.560;2023-07-16T10:06:59;2.90;;;1.60;;
26946;SDS011;14501;52.282;10.560;2023-07-16T10:09:40;3.17;;;1.63;;
26946;SDS011;14501;52.282;10.560;2023-07-16T10:14:54;2.13;;;1.48;;
26946;SDS011;14501;52.282;10.560;2023-07-16T10:17:29;4.68;;;1.98;;
26946;SDS011;14501;52.282;10.560;2023-07-16T10:25:07;6.30;;;1.90;;
26946;SDS011;14501;52.282;10.560;2023-07-16T10:27:55;3.15;;;2.15;;
26946;SDS011;14501;52.282;10.560;2023-07-16T10:30:21;6.55;;;1.88;;
26946;SDS011;14501;52.282;10.560;2023-07-16T10:32:47;3.65;;;1.80;;
26946;SDS011;14501;52.282;10.560;2023-07-16T10:35:12;4.38;;;1.88;;
26946;SDS011;14501;52.282;10.560;2023-07-16T10:37:39;2.97;;;1.90;;
26946;SDS011;14501;52.282;10.560;2023-07-16T10:40:05;8.10;;;1.88;;
26946;SDS011;14501;52.282;10.560;2023-07-16T10:42:35;7.20;;;1.77;;
26946;SDS011;14501;52.282;10.560;2023-07-16T10:45:02;4.65;;;1.85;;
26946;SDS011;14501;52.282;10.560;2023-07-16T10:47:37;2.83;;;1.55;;
26946;SDS011;14501;52.282;10.560;2023-07-16T10:50:04;4.85;;;2.05;;
26946;SDS011;14501;52.282;10.560;2023-07-16T10:52:32;4.35;;;2.20;;
26946;SDS011;14501;52.282;10.560;2023-07-16T10:54:58;3.15;;;1.67;;
26946;SDS011;14501;52.282;10.560;2023-07-16T10:57:24;4.95;;;1.90;;
26946;SDS011;14501;52.282;10.560;2023-07-16T10:59:51;6.05;;;2.10;;
26946;SDS011;14501;52.282;10.560;2023-07-16T11:02:18;3.45;;;1.80;;
26946;SDS011;14501;52.282;10.560;2023-07-16T11:04:44;4.32;;;1.92;;
26946;SDS011;14501;52.282;10.560;2023-07-16T11:07:11;3.13;;;1.80;;
26946;SDS011;14501;52.282;10.560;2023-07-16T11:12:08;2.63;;;1.95;;
26946;SDS011;14501;52.282;10.560;2023-07-16T11:14:34;3.47;;;1.60;;
26946;SDS011;14501;52.282;10.560;2023-07-16T11:17:07;2.95;;;1.58;;
26946;SDS011;14501;52.282;10.560;2023-07-16T11:19:33;4.47;;;1.85;;
26946;SDS011;14501;52.282;10.560;2023-07-16T11:22:01;3.60;;;2.03;;
26946;SDS011;14501;52.282;10.560;2023-07-16T11:24:27;3.92;;;1.77;;
26946;SDS011;14501;52.282;10.560;2023-07-16T11:26:53;3.35;;;1.85;;
26946;SDS011;14501;52.282;10.560;2023-07-16T11:29:23;3.60;;;1.95;;
26946;SDS011;14501;52.282;10.560;2023-07-16T11:31:52;4.45;;;1.88;;
26946;SDS011;14501;52.282;10.560;2023-07-16T11:34:21;4.63;;;1.73;;
26946;SDS011;14501;52.282;10.560;2023-07-16T11:36:48;5.15;;;1.95;;
26946;SDS011;14501;52.282;10.560;2023-07-16T11:39:14;5.95;;;2.40;;
26946;SDS011;14501;52.282;10.560;2023-07-16T11:41:39;6.25;;;1.92;;
26946;SDS011;14501;52.282;10.560;2023-07-16T11:44:06;7.13;;;2.13;;
26946;SDS011;14501;52.282;10.560;2023-07-16T11:46:33;4.35;;;1.80;;
26946;SDS011;14501;52.282;10.560;2023-07-16T11:49:02;5.30;;;2.00;;
26946;SDS011;14501;52.282;10.560;2023-07-16T11:51:28;3.78;;;1.77;;
26946;SDS011;14501;52.282;10.560;2023-07-16T11:53:55;5.50;;;1.85;;
26946;SDS011;14501;52.282;10.560;2023-07-16T11:56:22;3.95;;;2.25;;
26946;SDS011;14501;52.282;10.560;2023-07-16T11:58:49;5.47;;;2.22;;
26946;SDS011;14501;52.282;10.560;2023-07-16T12:01:15;5.45;;;1.92;;
26946;SDS011;14501;52.282;10.560;2023-07-16T12:03:40;5.60;;;2.17;;
26946;SDS011;14501;52.282;10.560;2023-07-16T12:06:06;5.53;;;2.13;;
26946;SDS011;14501;52.282;10.560;2023-07-16T12:08:33;4.47;;;2.10;;
26946;SDS011;14501;52.282;10.560;2023-07-16T12:10:58;6.63;;;1.85;;
26946;SDS011;14501;52.282;10.560;2023-07-16T12:13:24;3.67;;;1.92;;
26946;SDS011;14501;52.282;10.560;2023-07-16T12:15:49;5.55;;;1.80;;
26946;SDS011;14501;52.282;10.560;2023-07-16T12:18:15;7.07;;;1.67;;
26946;SDS011;14501;52.282;10.560;2023-07-16T12:20:40;3.30;;;1.92;;
26946;SDS011;14501;52.282;10.560;2023-07-16T12:23:06;3.65;;;2.17;;
26946;SDS011;14501;52.282;10.560;2023-07-16T12:25:32;6.18;;;2.00;;
26946;SDS011;14501;52.282;10.560;2023-07-16T12:27:57;5.03;;;2.10;;
26946;SDS011;14501;52.282;10.560;2023-07-16T12:30:23;4.20;;;2.40;;
26946;SDS011;14501;52.282;10.560;2023-07-16T12:32:49;6.15;;;2.10;;
26946;SDS011;14501;52.282;10.560;2023-07-16T12:35:15;4.55;;;2.20;;
26946;SDS011;14501;52.282;10.560;2023-07-16T12:37:41;4.90;;;2.15;;
26946;SDS011;14501;52.282;10.560;2023-07-16T12:40:07;5.80;;;2.13;;
26946;SDS011;14501;52.282;10.560;2023-07-16T12:42:33;5.63;;;2.40;;
26946;SDS011;14501;52.282;10.560;2023-07-16T12:44:58;3.97;;;2.00;;
26946;SDS011;14501;52.282;10.560;2023-07-16T12:47:24;2.88;;;2.15;;
26946;SDS011;14501;52.282;10.560;2023-07-16T12:49:49;3.60;;;2.30;;
26946;SDS011;14501;52.282;10.560;2023-07-16T12:52:15;4.80;;;2.13;;
26946;SDS011;14501;52.282;10.560;2023-07-16T12:54:40;4.18;;;2.28;;
26946;SDS011;14501;52.282;10.560;2023-07-16T12:57:06;3.13;;;2.38;;
26946;SDS011;14501;52.282;10.560;2023-07-16T12:59:32;4.82;;;2.28;;
26946;SDS011;14501;52.282;10.560;2023-07-16T13:01:57;3.53;;;2.17;;
26946;SDS011;14501;52.282;10.560;2023-07-16T13:04:23;2.17;;;1.77;;
26946;SDS011;14501;52.282;10.560;2023-07-16T13:06:49;6.45;;;2.15;;
26946;SDS011;14501;52.282;10.560;2023-07-16T13:09:14;4.28;;;2.60;;
26946;SDS011;14501;52.282;10.560;2023-07-16T13:11:42;7.13;;;2.80;;
26946;SDS011;14501;52.282;10.560;2023-07-16T13:14:07;4.78;;;2.42;;
26946;SDS011;14501;52.282;10.560;2023-07-16T13:16:33;3.90;;;2.13;;
26946;SDS011;14501;52.282;10.560;2023-07-16T13:18:59;4.55;;;2.38;;
26946;SDS011;14501;52.282;10.560;2023-07-16T13:21:24;6.43;;;2.55;;
26946;SDS011;14501;52.282;10.560;2023-07-16T13:23:50;4.82;;;2.67;;
26946;SDS011;14501;52.282;10.560;2023-07-16T13:26:15;4.93;;;2.60;;
26946;SDS011;14501;52.282;10.560;2023-07-16T13:28:41;3.15;;;2.40;;
26946;SDS011;14501;52.282;10.560;2023-07-16T13:31:07;3.88;;;2.45;;
26946;SDS011;14501;52.282;10.560;2023-07-16T13:33:35;4.78;;;2.50;;
26946;SDS011;14501;52.282;10.560;2023-07-16T13:36:01;3.65;;;2.22;;
26946;SDS011;14501;52.282;10.560;2023-07-16T13:38:29;5.93;;;2.50;;
26946;SDS011;14501;52.282;10.560;2023-07-16T13:40:55;3.67;;;2.58;;
26946;SDS011;14501;52.282;10.560;2023-07-16T13:43:21;5.28;;;2.58;;
26946;SDS011;14501;52.282;10.560;2023-07-16T13:45:46;3.78;;;2.30;;
26946;SDS011;14501;52.282;10.560;2023-07-16T13:48:12;3.40;;;2.30;;
26946;SDS011;14501;52.282;10.560;2023-07-16T13:50:38;3.60;;;2.38;;
26946;SDS011;14501;52.282;10.560;2023-07-16T13:53:03;3.70;;;2.40;;
26946;SDS011;14501;52.282;10.560;2023-07-16T13:55:29;3.97;;;2.58;;
26946;SDS011;14501;52.282;10.560;2023-07-16T13:57:54;5.25;;;2.50;;
26946;SDS011;14501;52.282;10.560;2023-07-16T14:00:23;6.20;;;2.47;;
26946;SDS011;14501;52.282;10.560;2023-07-16T14:02:48;4.07;;;2.40;;
26946;SDS011;14501;52.282;10.560;2023-07-16T14:05:14;4.07;;;2.38;;
26946;SDS011;14501;52.282;10.560;2023-07-16T14:07:39;4.10;;;2.55;;
26946;SDS011;14501;52.282;10.560;2023-07-16T14:10:05;3.95;;;2.80;;
26946;SDS011;14501;52.282;10.560;2023-07-16T14:12:32;4.15;;;2.65;;
26946;SDS011;14501;52.282;10.560;2023-07-16T14:14:58;3.47;;;2.45;;
26946;SDS011;14501;52.282;10.560;2023-07-16T14:17:24;4.45;;;2.45;;
26946;SDS011;14501;52.282;10.560;2023-07-16T14:19:50;3.25;;;2.22;;
26946;SDS011;14501;52.282;10.560;2023-07-16T14:22:15;5.07;;;2.38;;
26946;SDS011;14501;52.282;10.560;2023-07-16T14:24:41;3.10;;;2.40;;
26946;SDS011;14501;52.282;10.560;2023-07-16T14:27:07;3.63;;;2.42;;
26946;SDS011;14501;52.282;10.560;2023-07-16T14:29:34;3.05;;;1.92;;
26946;SDS011;14501;52.282;10.560;2023-07-16T14:32:00;3.70;;;2.25;;
26946;SDS011;14501;52.282;10.560;2023-07-16T14:34:25;5.95;;;2.55;;
26946;SDS011;14501;52.282;10.560;2023-07-16T14:36:52;5.60;;;2.45;;
26946;SDS011;14501;52.282;10.560;2023-07-16T14:39:18;3.97;;;2.13;;
26946;SDS011;14501;52.282;10.560;2023-07-16T14:41:43;4.78;;;2.30;;
26946;SDS011;14501;52.282;10.560;2023-07-16T14:44:09;6.35;;;2.45;;
26946;SDS011;14501;52.282;10.560;2023-07-16T14:46:35;4.28;;;2.60;;
26946;SDS011;14501;52.282;10.560;2023-07-16T14:49:02;6.22;;;2.38;;
26946;SDS011;14501;52.282;10.560;2023-07-16T14:51:27;5.38;;;2.13;;
26946;SDS011;14501;52.282;10.560;2023-07-16T14:53:53;4.90;;;2.38;;
26946;SDS011;14501;52.282;10.560;2023-07-16T14:56:19;6.35;;;2.80;;